Time;durP1;ratioP1;P1;durP2;ratioP2;P2;SDS_P1;SDS_P2;PMS_P1;PMS_P2;Temp;Humidity;BMP_temperature;BMP_pressure;BME280_temperature;BME280_humidity;BME280_pressure;Samples;Min_cycle;Max_cycle;Signal;HPM_P1;HPM_P2
2022/04/07 00:00:52;;;;;;;3.22;0.95;;;14.20;84.70;;;;;;5052718;28;20043;-74
2022/04/07 00:03:18;;;;;;;2.22;0.82;;;14.10;86.90;;;;;;5052220;28;20036;-74
2022/04/07 00:05:44;;;;;;;0.70;0.68;;;14.10;87.90;;;;;;5052763;28;20385;-74
2022/04/07 00:08:10;;;;;;;1.90;1.13;;;14.00;89.10;;;;;;5051950;28;20378;-73
2022/04/07 00:10:36;;;;;;;4.03;1.05;;;14.00;90.60;;;;;;5052139;28;20075;-73
2022/04/07 00:13:02;;;;;;;3.17;1.25;;;14.00;92.30;;;;;;5052056;28;20045;-73
2022/04/07 00:15:28;;;;;;;3.03;1.42;;;13.90;94.10;;;;;;5051822;28;20148;-72
2022/04/07 00:17:53;;;;;;;2.53;1.00;;;13.80;95.60;;;;;;5052469;28;20024;-73
2022/04/07 00:20:20;;;;;;;2.88;1.30;;;13.70;97.00;;;;;;5051626;28;20033;-74
2022/04/07 00:22:47;;;;;;;1.60;1.10;;;13.60;98.50;;;;;;5052354;28;20091;-74
2022/04/07 00:25:13;;;;;;;1.58;1.27;;;13.60;99.40;;;;;;5051320;28;20469;-73
2022/04/07 00:27:39;;;;;;;1.42;1.10;;;13.60;99.90;;;;;;5052061;28;20064;-73
2022/04/07 00:30:05;;;;;;;2.15;1.20;;;13.50;99.90;;;;;;5051902;28;20029;-74
2022/04/07 00:32:31;;;;;;;1.20;1.00;;;13.50;99.90;;;;;;5052069;28;20033;-73
2022/04/07 00:34:57;;;;;;;1.80;1.30;;;13.50;99.90;;;;;;5052049;28;20052;-73
2022/04/07 00:37:24;;;;;;;1.77;1.10;;;13.40;99.90;;;;;;5051657;28;20060;-73
2022/04/07 00:39:50;;;;;;;1.95;1.27;;;13.40;99.90;;;;;;5052110;28;20025;-73
2022/04/07 00:42:16;;;;;;;1.55;1.30;;;13.40;99.90;;;;;;5050917;28;20037;-73
2022/04/07 00:44:43;;;;;;;2.13;1.33;;;13.40;99.90;;;;;;5051949;28;20048;-73
2022/04/07 00:47:12;;;;;;;1.77;1.10;;;13.30;99.90;;;;;;5051401;28;20440;-72
2022/04/07 00:49:38;;;;;;;1.83;1.38;;;13.30;99.90;;;;;;5051677;28;20076;-74
2022/04/07 00:52:04;;;;;;;3.97;1.33;;;13.30;99.90;;;;;;5051618;28;20519;-74
2022/04/07 00:54:30;;;;;;;1.35;1.23;;;13.30;99.90;;;;;;5051205;28;20025;-74
2022/04/07 00:56:59;;;;;;;5.25;1.30;;;13.30;99.90;;;;;;5051927;28;20060;-74
2022/04/07 00:59:25;;;;;;;1.17;0.95;;;13.30;99.90;;;;;;5051460;28;20044;-75
2022/04/07 01:01:50;;;;;;;2.08;1.00;;;13.40;99.90;;;;;;5051560;28;20466;-74
2022/04/07 01:04:16;;;;;;;3.38;1.15;;;13.40;99.90;;;;;;5050784;28;20075;-73
2022/04/07 01:06:43;;;;;;;1.48;0.90;;;13.40;99.90;;;;;;5051786;28;20023;-73
2022/04/07 01:09:10;;;;;;;2.83;1.10;;;13.40;99.60;;;;;;5051079;28;20025;-71
2022/04/07 01:11:37;;;;;;;1.40;0.82;;;13.50;99.40;;;;;;5051535;28;20129;-74
2022/04/07 01:14:03;;;;;;;1.02;0.90;;;13.40;99.40;;;;;;5051529;28;20037;-73
2022/04/07 01:16:30;;;;;;;0.82;0.82;;;13.50;99.40;;;;;;5050728;28;20257;-72
2022/04/07 01:18:59;;;;;;;1.88;1.00;;;13.50;99.20;;;;;;5051614;28;20424;-74
2022/04/07 01:21:26;;;;;;;1.60;1.17;;;13.50;99.00;;;;;;5050706;28;20520;-73
2022/04/07 01:23:51;;;;;;;1.35;1.00;;;13.50;98.70;;;;;;5054297;28;20397;-74
2022/04/07 01:26:18;;;;;;;1.58;1.10;;;13.40;98.50;;;;;;5055047;28;20029;-73
2022/04/07 01:28:50;;;;;;;1.00;0.70;;;13.40;98.10;;;;;;5055374;28;20025;-74
2022/04/07 01:31:16;;;;;;;1.08;0.80;;;13.40;97.90;;;;;;5054583;28;20489;-73
2022/04/07 01:33:42;;;;;;;1.27;0.90;;;13.30;97.40;;;;;;5055401;28;20025;-73
2022/04/07 01:36:09;;;;;;;1.00;0.73;;;13.30;97.90;;;;;;5055447;28;20029;-73
2022/04/07 01:38:35;;;;;;;1.45;0.80;;;13.20;98.00;;;;;;5054796;28;20032;-74
2022/04/07 01:41:01;;;;;;;2.38;0.70;;;13.10;97.50;;;;;;5055394;28;20029;-74
2022/04/07 01:43:27;;;;;;;2.72;0.90;;;13.10;98.00;;;;;;5054411;28;20033;-73
2022/04/07 01:45:53;;;;;;;0.75;0.75;;;13.10;98.00;;;;;;5055243;28;20465;-73
2022/04/07 01:48:19;;;;;;;1.75;0.98;;;13.10;98.10;;;;;;5054215;28;20075;-73
2022/04/07 01:50:47;;;;;;;1.90;0.93;;;13.10;98.30;;;;;;5055137;28;20040;-74
2022/04/07 01:53:13;;;;;;;2.35;0.90;;;13.10;98.10;;;;;;5054400;28;20124;-73
2022/04/07 01:55:41;;;;;;;1.70;1.10;;;13.00;98.20;;;;;;5054899;28;20509;-73
2022/04/07 01:58:07;;;;;;;1.30;0.70;;;13.00;98.30;;;;;;5054826;28;20485;-73
2022/04/07 02:00:33;;;;;;;0.90;0.70;;;13.00;98.10;;;;;;5054159;28;20033;-73
2022/04/07 02:02:58;;;;;;;1.08;0.70;;;13.00;97.60;;;;;;5054999;28;20090;-73
2022/04/07 02:05:24;;;;;;;1.85;1.00;;;13.00;97.10;;;;;;5054406;28;20052;-72
2022/04/07 02:07:50;;;;;;;1.38;0.80;;;13.00;96.80;;;;;;5053750;28;20116;-73
2022/04/07 02:10:16;;;;;;;2.10;0.85;;;12.90;96.00;;;;;;5054323;28;20071;-72
2022/04/07 02:12:42;;;;;;;2.72;0.60;;;13.00;95.90;;;;;;5054734;28;20033;-72
2022/04/07 02:15:10;;;;;;;0.68;0.68;;;13.00;95.50;;;;;;5054777;28;20037;-74
2022/04/07 02:17:36;;;;;;;0.55;0.47;;;13.00;95.50;;;;;;5054136;28;20029;-74
2022/04/07 02:20:05;;;;;;;0.75;0.50;;;13.00;95.00;;;;;;5054719;28;20481;-73
2022/04/07 02:22:31;;;;;;;1.80;0.50;;;13.10;95.10;;;;;;5053667;28;20025;-74
2022/04/07 02:24:58;;;;;;;0.40;0.40;;;13.00;94.50;;;;;;5054632;28;20511;-75
2022/04/07 02:27:23;;;;;;;2.33;0.70;;;13.10;94.30;;;;;;5053883;28;20373;-72
2022/04/07 02:29:49;;;;;;;0.88;0.60;;;13.10;94.10;;;;;;5054484;28;20028;-73
2022/04/07 02:32:15;;;;;;;2.50;0.60;;;13.10;94.30;;;;;;5053844;28;20037;-71
2022/04/07 02:34:41;;;;;;;1.73;0.60;;;13.00;94.10;;;;;;5053821;28;20028;-74
2022/04/07 02:37:08;;;;;;;2.38;1.17;;;13.00;93.90;;;;;;5054201;28;20057;-74
2022/04/07 02:39:34;;;;;;;0.70;0.60;;;13.00;93.90;;;;;;5053533;28;20478;-73
2022/04/07 02:41:59;;;;;;;2.28;0.60;;;13.00;94.10;;;;;;5054082;28;20031;-74
2022/04/07 02:44:25;;;;;;;0.70;0.50;;;12.90;94.30;;;;;;5053625;28;20026;-73
2022/04/07 02:46:51;;;;;;;0.77;0.50;;;12.90;94.40;;;;;;5053972;28;20092;-74
2022/04/07 02:49:17;;;;;;;0.50;0.50;;;12.90;94.60;;;;;;5053509;28;20029;-72
2022/04/07 02:51:44;;;;;;;0.70;0.70;;;12.80;94.80;;;;;;5053980;28;20108;-73
2022/04/07 02:54:09;;;;;;;1.67;0.60;;;12.90;95.20;;;;;;5054129;28;20021;-72
2022/04/07 02:56:35;;;;;;;1.65;0.50;;;12.80;95.80;;;;;;5053012;28;20060;-74
2022/04/07 02:59:01;;;;;;;0.55;0.40;;;12.70;96.50;;;;;;5053999;28;20021;-73
2022/04/07 03:01:27;;;;;;;0.90;0.60;;;12.70;97.20;;;;;;5053394;28;20025;-74
2022/04/07 03:03:55;;;;;;;0.73;0.70;;;12.60;97.80;;;;;;5053919;28;20025;-74
2022/04/07 03:06:21;;;;;;;1.52;0.70;;;12.60;98.60;;;;;;5053270;28;20036;-73
2022/04/07 03:08:47;;;;;;;4.00;0.77;;;12.60;99.00;;;;;;5053883;28;20378;-73
2022/04/07 03:11:13;;;;;;;1.23;0.68;;;12.60;99.60;;;;;;5053303;28;20086;-73
2022/04/07 03:13:40;;;;;;;0.68;0.55;;;12.50;99.90;;;;;;5052007;28;20099;-73
2022/04/07 03:16:09;;;;;;;0.57;0.57;;;12.50;99.90;;;;;;5051496;28;20047;-73
2022/04/07 03:18:35;;;;;;;1.08;0.70;;;12.50;99.90;;;;;;5051936;28;20032;-73
2022/04/07 03:21:01;;;;;;;0.82;0.60;;;12.40;99.90;;;;;;5053834;28;20021;-73
2022/04/07 03:23:26;;;;;;;0.60;0.55;;;12.30;99.90;;;;;;5052913;28;20029;-73
2022/04/07 03:25:52;;;;;;;1.58;0.80;;;12.20;99.90;;;;;;5053304;28;20048;-74
2022/04/07 03:28:18;;;;;;;1.17;0.60;;;12.10;99.90;;;;;;5053222;28;20051;-73
2022/04/07 03:30:44;;;;;;;1.20;0.70;;;12.10;99.90;;;;;;5053074;28;20021;-74
2022/04/07 03:33:10;;;;;;;1.20;0.70;;;12.00;99.90;;;;;;5053340;28;20040;-73
2022/04/07 03:35:36;;;;;;;2.30;0.90;;;12.00;99.90;;;;;;5052224;28;20033;-73
2022/04/07 03:38:06;;;;;;;1.23;0.90;;;11.90;99.90;;;;;;5053249;28;20057;-72
2022/04/07 03:40:34;;;;;;;1.75;0.68;;;11.80;99.90;;;;;;5052604;28;20454;-73
2022/04/07 03:43:00;;;;;;;1.75;0.82;;;11.80;99.90;;;;;;5053129;28;20029;-74
2022/04/07 03:45:26;;;;;;;1.13;0.75;;;11.70;99.90;;;;;;5052373;28;20478;-73
2022/04/07 03:47:52;;;;;;;1.10;0.80;;;11.70;99.90;;;;;;5053078;28;20040;-74
2022/04/07 03:50:17;;;;;;;1.23;0.93;;;11.60;99.90;;;;;;5052924;28;20044;-74
2022/04/07 03:52:43;;;;;;;1.00;0.75;;;11.60;99.90;;;;;;5051993;28;20037;-73
2022/04/07 03:55:09;;;;;;;2.33;0.80;;;11.50;99.90;;;;;;5052689;28;20049;-72
2022/04/07 03:57:35;;;;;;;2.05;0.90;;;11.50;99.90;;;;;;5052314;28;20025;-73
2022/04/07 04:00:01;;;;;;;3.00;1.00;;;11.50;99.90;;;;;;5052892;28;20032;-74
2022/04/07 04:02:26;;;;;;;3.22;0.80;;;11.40;99.90;;;;;;5052555;28;20037;-73
2022/04/07 04:04:52;;;;;;;2.53;0.80;;;11.40;99.90;;;;;;5052615;28;20546;-73
2022/04/07 04:07:18;;;;;;;1.30;0.70;;;11.40;99.90;;;;;;5052834;28;20067;-74
2022/04/07 04:09:45;;;;;;;1.05;0.70;;;11.40;99.90;;;;;;5052036;28;20029;-73
2022/04/07 04:12:11;;;;;;;1.48;0.90;;;11.40;99.90;;;;;;5052297;28;20082;-73
2022/04/07 04:14:36;;;;;;;0.77;0.77;;;11.40;99.90;;;;;;5051486;28;20418;-73
2022/04/07 04:17:03;;;;;;;1.33;1.08;;;11.40;99.90;;;;;;5052216;28;20104;-74
2022/04/07 04:19:29;;;;;;;1.73;1.13;;;11.40;99.90;;;;;;5051170;28;20032;-74
2022/04/07 04:21:55;;;;;;;1.85;0.93;;;11.50;99.90;;;;;;5052310;28;20048;-74
2022/04/07 04:24:21;;;;;;;1.90;1.00;;;11.50;99.90;;;;;;5052314;28;20457;-74
2022/04/07 04:26:46;;;;;;;4.28;1.20;;;11.50;99.90;;;;;;5051747;28;20082;-74
2022/04/07 04:29:12;;;;;;;0.80;0.70;;;11.50;99.90;;;;;;5052320;28;20025;-73
2022/04/07 04:31:38;;;;;;;1.02;0.90;;;11.50;99.90;;;;;;5051507;28;20037;-73
2022/04/07 04:34:03;;;;;;;2.20;1.08;;;11.50;99.90;;;;;;5052311;28;20025;-73
2022/04/07 04:36:29;;;;;;;2.85;0.90;;;11.50;99.90;;;;;;5051545;28;20119;-73
2022/04/07 04:38:55;;;;;;;2.60;0.90;;;11.50;99.90;;;;;;5049481;28;20025;-74
2022/04/07 04:41:20;;;;;;;1.48;1.10;;;11.50;99.90;;;;;;5051758;28;20025;-74
2022/04/07 04:43:46;;;;;;;0.93;0.82;;;11.50;99.90;;;;;;5051069;28;20138;-74
2022/04/07 04:46:12;;;;;;;1.40;0.80;;;11.50;99.90;;;;;;5051836;28;20024;-73
2022/04/07 04:48:38;;;;;;;2.58;1.10;;;11.50;99.90;;;;;;5051200;28;20066;-73
2022/04/07 04:51:04;;;;;;;2.55;0.93;;;11.50;99.90;;;;;;5051671;28;20040;-73
2022/04/07 04:53:30;;;;;;;3.25;0.98;;;11.50;99.90;;;;;;5051157;28;20108;-72
2022/04/07 04:55:56;;;;;;;2.33;0.90;;;11.50;99.90;;;;;;5051342;28;20175;-74
2022/04/07 04:58:22;;;;;;;1.27;0.95;;;11.50;99.90;;;;;;5050822;28;20025;-74
2022/04/07 05:00:48;;;;;;;1.75;0.90;;;11.50;99.90;;;;;;5051058;28;20107;-73
2022/04/07 05:03:14;;;;;;;1.95;0.90;;;11.50;99.90;;;;;;5051671;28;20100;-74
2022/04/07 05:05:39;;;;;;;2.47;1.25;;;11.50;99.90;;;;;;5050933;28;20033;-72
2022/04/07 05:08:06;;;;;;;1.90;1.10;;;11.60;99.90;;;;;;5050296;28;20034;-73
2022/04/07 05:10:32;;;;;;;3.17;1.00;;;11.60;99.90;;;;;;5050931;28;20527;-74
2022/04/07 05:12:58;;;;;;;1.05;0.80;;;11.60;99.90;;;;;;5051377;28;20026;-73
2022/04/07 05:15:24;;;;;;;3.72;1.30;;;11.70;99.90;;;;;;5051274;28;20465;-73
2022/04/07 05:17:51;;;;;;;2.30;1.10;;;11.70;99.90;;;;;;5050548;28;20108;-73
2022/04/07 05:20:17;;;;;;;1.38;0.90;;;11.70;99.90;;;;;;5051638;28;20044;-74
2022/04/07 05:22:43;;;;;;;2.30;1.13;;;11.80;99.90;;;;;;5050984;28;20182;-74
2022/04/07 05:25:10;;;;;;;1.52;1.10;;;11.80;99.90;;;;;;5051166;28;20017;-73
2022/04/07 05:27:36;;;;;;;3.30;1.10;;;11.80;99.90;;;;;;5050758;28;20029;-72
2022/04/07 05:30:15;;;;;;;2.88;1.10;;;11.90;99.90;;;;;;5051325;28;20385;-73
2022/04/07 05:32:40;;;;;;;2.10;1.10;;;11.90;99.90;;;;;;5050576;28;20072;-73
2022/04/07 05:35:06;;;;;;;2.00;1.20;;;11.90;99.90;;;;;;5051230;28;20032;-73
2022/04/07 05:37:32;;;;;;;4.30;1.45;;;11.90;99.90;;;;;;5050427;28;20104;-72
2022/04/07 05:39:58;;;;;;;2.70;1.30;;;11.80;99.90;;;;;;5051245;28;20453;-73
2022/04/07 05:42:42;;;;;;;1.98;1.10;;;11.90;99.90;;;;;;5051037;28;20040;-73
2022/04/07 05:45:09;;;;;;;4.13;1.30;;;11.80;99.90;;;;;;5051129;28;20486;-73
2022/04/07 05:47:39;;;;;;;1.65;1.10;;;11.80;99.90;;;;;;5049356;28;20071;-73
2022/04/07 05:50:05;;;;;;;1.70;1.08;;;11.80;99.90;;;;;;5051306;28;20044;-74
2022/04/07 05:52:31;;;;;;;2.80;1.40;;;11.90;99.90;;;;;;5050968;28;20041;-73
2022/04/07 05:54:57;;;;;;;2.67;1.20;;;11.90;99.90;;;;;;5051116;28;20109;-74
2022/04/07 05:57:26;;;;;;;4.25;1.10;;;11.90;99.90;;;;;;5051474;28;20426;-74
2022/04/07 05:59:52;;;;;;;4.20;1.50;;;11.80;99.90;;;;;;5050396;28;20053;-74
2022/04/07 06:02:17;;;;;;;2.92;1.60;;;11.90;99.90;;;;;;5051321;28;20466;-75
2022/04/07 06:04:43;;;;;;;4.30;2.20;;;11.80;99.90;;;;;;5050339;28;20112;-73
2022/04/07 06:07:09;;;;;;;3.03;1.70;;;11.90;99.90;;;;;;5051111;28;20058;-74
2022/04/07 06:09:35;;;;;;;3.55;1.70;;;11.90;99.90;;;;;;5051275;28;20462;-72
2022/04/07 06:12:01;;;;;;;4.13;2.13;;;11.90;99.90;;;;;;5053939;28;20070;-73
2022/04/07 06:14:26;;;;;;;5.13;1.85;;;11.90;99.90;;;;;;5054891;28;20052;-73
2022/04/07 06:16:52;;;;;;;4.53;2.10;;;12.00;99.90;;;;;;5054048;28;20055;-73
2022/04/07 06:19:17;;;;;;;3.60;2.00;;;12.00;99.90;;;;;;5054819;28;20028;-73
2022/04/07 06:21:43;;;;;;;5.18;1.70;;;12.00;99.90;;;;;;5053934;28;20169;-73
2022/04/07 06:24:09;;;;;;;3.13;1.50;;;12.10;99.90;;;;;;5054620;28;20120;-73
2022/04/07 06:26:35;;;;;;;3.15;1.52;;;12.10;99.90;;;;;;5053944;28;20059;-72
2022/04/07 06:29:00;;;;;;;3.75;1.48;;;12.20;99.90;;;;;;5054512;28;20021;-73
2022/04/07 06:31:26;;;;;;;2.45;1.77;;;12.30;99.90;;;;;;5054403;28;20446;-73
2022/04/07 06:33:52;;;;;;;4.60;1.85;;;12.40;99.90;;;;;;5052447;28;20210;-73
2022/04/07 06:36:18;;;;;;;3.90;1.60;;;12.40;99.90;;;;;;5054356;28;20025;-74
2022/04/07 06:38:43;;;;;;;2.45;1.40;;;12.50;99.90;;;;;;5053695;28;20029;-73
2022/04/07 06:41:09;;;;;;;1.70;1.30;;;12.60;99.90;;;;;;5053871;28;20044;-73
2022/04/07 06:43:34;;;;;;;1.80;1.40;;;12.60;99.90;;;;;;5053581;28;20025;-73
2022/04/07 06:46:00;;;;;;;5.68;1.67;;;12.80;99.90;;;;;;5053762;28;20111;-73
2022/04/07 06:48:26;;;;;;;1.92;1.40;;;12.90;99.90;;;;;;5054107;28;20497;-74
2022/04/07 06:50:51;;;;;;;2.78;1.50;;;13.00;99.90;;;;;;5053512;28;20118;-74
2022/04/07 06:53:17;;;;;;;2.33;1.42;;;13.10;99.90;;;;;;5053554;28;20597;-73
2022/04/07 06:55:43;;;;;;;3.95;1.70;;;13.10;99.90;;;;;;5051751;28;20136;-72
2022/04/07 06:58:10;;;;;;;3.47;2.00;;;13.20;99.90;;;;;;5053925;28;20103;-72
2022/04/07 07:00:43;;;;;;;5.05;1.63;;;13.20;99.90;;;;;;5053400;28;20028;-73
2022/04/07 07:03:09;;;;;;;3.53;1.88;;;13.30;99.90;;;;;;5054364;28;20033;-73
2022/04/07 07:05:36;;;;;;;2.55;1.58;;;13.40;99.80;;;;;;5053754;28;20025;-72
2022/04/07 07:08:19;;;;;;;2.67;1.77;;;13.40;99.10;;;;;;5053728;28;20029;-73
2022/04/07 07:10:46;;;;;;;5.25;1.33;;;13.60;98.90;;;;;;5053150;28;20398;-73
2022/04/07 07:13:14;;;;;;;2.55;1.27;;;13.70;97.80;;;;;;5053620;28;20102;-73
2022/04/07 07:15:40;;;;;;;2.33;1.35;;;13.80;97.10;;;;;;5037411;28;20044;-73
2022/04/07 07:18:07;;;;;;;2.30;1.45;;;13.80;96.70;;;;;;5033841;28;20030;-73
2022/04/07 07:20:33;;;;;;;3.85;1.40;;;13.90;96.90;;;;;;5033237;28;20033;-73
2022/04/07 07:22:59;;;;;;;3.13;1.40;;;13.90;96.60;;;;;;5033134;28;20395;-72
2022/04/07 07:25:24;;;;;;;2.67;1.55;;;14.00;96.20;;;;;;5033540;28;20025;-72
2022/04/07 07:27:50;;;;;;;3.90;1.33;;;13.90;95.60;;;;;;5032768;28;20528;-72
2022/04/07 07:30:17;;;;;;;4.85;1.45;;;13.80;95.30;;;;;;5033465;28;20030;-72
2022/04/07 07:32:45;;;;;;;6.13;1.67;;;13.80;95.60;;;;;;5032286;28;20549;-73
2022/04/07 07:35:11;;;;;;;1.73;1.30;;;13.80;95.70;;;;;;5033267;28;20032;-73
2022/04/07 07:37:50;;;;;;;5.85;1.42;;;13.90;95.80;;;;;;5033412;28;20048;-71
2022/04/07 07:40:17;;;;;;;4.55;1.30;;;13.80;94.90;;;;;;5033323;28;20026;-74
2022/04/07 07:42:43;;;;;;;4.72;1.40;;;13.80;94.50;;;;;;5032781;28;20033;-73
2022/04/07 07:45:09;;;;;;;1.15;1.00;;;13.80;94.40;;;;;;5033213;28;20045;-74
2022/04/07 07:47:35;;;;;;;1.33;1.10;;;13.80;94.20;;;;;;5033305;28;20022;-73
2022/04/07 07:50:02;;;;;;;8.95;1.40;;;13.70;94.00;;;;;;5031135;28;20355;-72
2022/04/07 07:52:28;;;;;;;2.83;1.40;;;13.70;94.30;;;;;;5032862;28;20468;-73
2022/04/07 07:54:53;;;;;;;3.60;1.50;;;13.70;94.20;;;;;;5032141;28;20036;-73
2022/04/07 07:57:20;;;;;;;6.45;1.52;;;13.70;94.30;;;;;;5033057;28;20105;-72
2022/04/07 07:59:45;;;;;;;2.20;1.52;;;13.70;94.60;;;;;;5032283;28;20421;-72
2022/04/07 08:02:11;;;;;;;4.13;1.58;;;13.70;94.60;;;;;;5032731;28;20040;-73
2022/04/07 08:04:36;;;;;;;4.85;1.80;;;13.80;94.90;;;;;;5032774;28;20032;-74
2022/04/07 08:07:02;;;;;;;7.43;2.70;;;13.90;94.90;;;;;;5032087;28;20029;-74
2022/04/07 08:09:28;;;;;;;5.20;2.20;;;14.00;93.60;;;;;;5032496;28;20577;-74
2022/04/07 08:11:54;;;;;;;3.55;1.95;;;14.30;93.80;;;;;;5032012;28;20072;-74
2022/04/07 08:14:20;;;;;;;2.60;1.40;;;14.70;96.20;;;;;;5032670;28;20036;-73
2022/04/07 08:16:45;;;;;;;4.90;1.33;;;15.10;92.10;;;;;;5031861;28;20067;-72
2022/04/07 08:19:11;;;;;;;2.50;1.10;;;15.90;86.00;;;;;;5032311;28;20065;-74
2022/04/07 08:21:37;;;;;;;4.50;1.38;;;16.90;84.10;;;;;;5040569;28;20017;-74
2022/04/07 08:24:03;;;;;;;2.35;1.10;;;18.10;73.20;;;;;;5051735;28;20390;-73
2022/04/07 08:26:29;;;;;;;2.47;1.42;;;18.10;69.60;;;;;;5052448;28;20078;-73
2022/04/07 08:28:55;;;;;;;2.70;1.40;;;17.50;68.90;;;;;;5051857;28;20053;-73
2022/04/07 08:31:20;;;;;;;4.43;1.20;;;17.70;70.50;;;;;;5052069;28;20103;-73
2022/04/07 08:33:46;;;;;;;2.30;1.20;;;17.80;68.30;;;;;;5049717;28;20125;-73
2022/04/07 08:36:12;;;;;;;4.28;1.40;;;17.20;67.90;;;;;;5052287;28;20033;-73
2022/04/07 08:38:38;;;;;;;5.97;1.30;;;16.90;70.90;;;;;;5051963;28;20523;-73
2022/04/07 08:41:08;;;;;;;1.90;1.08;;;16.70;70.30;;;;;;5051492;28;20029;-73
2022/04/07 08:43:38;;;;;;;2.03;1.20;;;16.50;70.50;;;;;;5052173;28;20043;-72
2022/04/07 08:46:07;;;;;;;2.42;1.40;;;16.30;72.50;;;;;;5051458;28;20056;-74
2022/04/07 08:48:44;;;;;;;5.47;1.30;;;16.40;71.60;;;;;;5051868;28;20033;-73
2022/04/07 08:51:11;;;;;;;2.45;1.20;;;16.50;70.40;;;;;;5051690;28;20032;-72
2022/04/07 08:53:38;;;;;;;3.13;1.20;;;16.30;70.60;;;;;;5051749;28;20040;-73
2022/04/07 08:56:05;;;;;;;1.65;1.10;;;16.20;70.50;;;;;;5051053;28;20055;-72
2022/04/07 08:58:32;;;;;;;2.95;1.20;;;16.00;71.10;;;;;;5051645;28;20036;-74
2022/04/07 09:00:59;;;;;;;2.75;1.40;;;15.90;71.60;;;;;;5051190;28;20033;-73
2022/04/07 09:03:25;;;;;;;2.22;1.45;;;16.00;72.80;;;;;;5051732;28;20033;-72
2022/04/07 09:06:02;;;;;;;2.88;1.20;;;16.00;71.90;;;;;;5051175;28;20025;-72
2022/04/07 09:08:33;;;;;;;2.65;1.27;;;16.10;71.40;;;;;;5051599;28;20511;-73
2022/04/07 09:11:04;;;;;;;4.90;1.30;;;16.10;69.30;;;;;;5051018;28;20082;-73
2022/04/07 09:13:34;;;;;;;5.75;1.35;;;16.30;69.60;;;;;;5051627;28;20078;-74
2022/04/07 09:16:07;;;;;;;1.77;1.30;;;16.40;69.20;;;;;;5051190;28;20052;-72
2022/04/07 09:18:35;;;;;;;1.60;1.00;;;16.60;66.30;;;;;;5051713;28;20033;-72
2022/04/07 09:21:00;;;;;;;4.00;1.33;;;16.60;65.10;;;;;;5051084;28;20032;-72
2022/04/07 09:23:29;;;;;;;3.50;1.00;;;16.80;65.70;;;;;;5051645;28;20381;-73
2022/04/07 09:25:54;;;;;;;2.97;1.15;;;16.90;64.30;;;;;;5050987;28;20025;-73
2022/04/07 09:28:31;;;;;;;1.48;0.90;;;17.10;62.80;;;;;;5051241;28;20381;-73
2022/04/07 09:33:53;;;;;;;1.60;0.80;;;17.50;61.00;;;;;;5051405;28;20040;-73
2022/04/07 09:36:21;;;;;;;2.85;1.00;;;17.40;59.30;;;;;;5051604;28;20028;-73
2022/04/07 09:38:58;;;;;;;1.05;0.95;;;17.50;59.80;;;;;;5050870;28;20072;-73
2022/04/07 09:41:28;;;;;;;2.33;1.30;;;17.50;59.90;;;;;;5051172;28;20437;-73
2022/04/07 09:43:58;;;;;;;2.70;1.10;;;17.50;60.40;;;;;;5052345;28;20029;-73
2022/04/07 09:46:26;;;;;;;2.25;1.40;;;17.60;60.20;;;;;;5055693;28;20456;-72
2022/04/07 09:49:12;;;;;;;1.83;1.20;;;17.70;61.20;;;;;;5054562;28;20041;-72
2022/04/07 09:51:38;;;;;;;1.23;1.10;;;17.80;60.90;;;;;;5055176;28;20020;-74
2022/04/07 09:54:09;;;;;;;2.13;1.73;;;17.90;60.10;;;;;;5054628;28;20350;-72
2022/04/07 09:56:35;;;;;;;;;;;18.00;59.20;;;;;;5055327;28;20060;-72
2022/04/07 09:59:02;;;;;;;1.10;0.88;;;18.10;57.30;;;;;;5054732;28;19905;-72
2022/04/07 10:01:29;;;;;;;1.60;0.93;;;18.10;58.40;;;;;;5053866;28;20033;-73
2022/04/07 10:03:56;;;;;;;1.73;1.05;;;18.20;57.20;;;;;;5054526;28;20039;-73
2022/04/07 10:06:22;;;;;;;1.63;1.05;;;18.20;57.20;;;;;;5055047;28;20401;-74
2022/04/07 10:08:49;;;;;;;3.72;1.05;;;18.40;57.50;;;;;;5054988;28;20149;-73
2022/04/07 10:11:18;;;;;;;3.08;0.82;;;18.30;54.70;;;;;;5054970;28;20131;-73
2022/04/07 10:13:46;;;;;;;3.30;1.10;;;18.10;52.20;;;;;;5054813;28;20033;-74
2022/04/07 10:16:14;;;;;;;2.58;1.00;;;18.00;52.50;;;;;;5054267;28;20021;-73
2022/04/07 10:18:49;;;;;;;1.40;0.80;;;18.00;54.00;;;;;;5054247;28;20029;-72
2022/04/07 10:21:34;;;;;;;1.58;0.88;;;18.10;52.40;;;;;;5054879;28;20028;-73
2022/04/07 10:24:24;;;;;;;4.30;1.17;;;18.10;53.40;;;;;;5054289;28;20059;-72
2022/04/07 10:26:50;;;;;;;5.03;1.00;;;18.10;51.40;;;;;;5054103;28;20025;-72
2022/04/07 10:29:21;;;;;;;3.05;1.00;;;18.00;51.80;;;;;;5054654;28;20029;-73
2022/04/07 10:32:19;;;;;;;3.75;0.95;;;17.70;52.80;;;;;;5054383;28;20087;-73
2022/04/07 10:34:58;;;;;;;5.78;1.10;;;17.70;53.70;;;;;;5054395;28;20166;-73
2022/04/07 10:37:39;;;;;;;1.65;0.88;;;17.80;53.40;;;;;;5054169;28;20162;-74
2022/04/07 10:40:44;;;;;;;2.05;0.95;;;17.80;53.30;;;;;;5053578;28;20163;-73
2022/04/07 10:43:15;;;;;;;2.60;0.98;;;17.80;51.90;;;;;;5053559;28;20390;-73
2022/04/07 10:45:43;;;;;;;3.03;1.10;;;17.80;52.10;;;;;;5054381;28;20036;-73
2022/04/07 10:48:21;;;;;;;3.58;1.10;;;17.90;52.30;;;;;;5052387;28;20397;-73
2022/04/07 10:51:08;;;;;;;3.03;1.05;;;18.00;52.90;;;;;;5054144;28;20056;-73
2022/04/07 10:53:59;;;;;;;5.28;1.08;;;18.00;52.10;;;;;;5053821;28;20041;-74
2022/04/07 10:56:34;;;;;;;1.25;0.80;;;18.00;51.80;;;;;;5053204;28;20191;-73
2022/04/07 10:59:30;;;;;;;1.45;0.90;;;18.10;51.30;;;;;;5053250;28;20037;-73
2022/04/07 11:02:03;;;;;;;1.67;1.10;;;18.10;49.90;;;;;;5052734;28;20482;-73
2022/04/07 11:04:29;;;;;;;1.75;0.70;;;18.10;50.40;;;;;;5054129;28;20082;-73
2022/04/07 11:07:19;;;;;;;5.05;0.88;;;18.20;50.90;;;;;;5053278;28;20112;-72
2022/04/07 11:09:53;;;;;;;1.45;0.80;;;18.30;50.60;;;;;;5053979;28;20029;-73
2022/04/07 11:12:45;;;;;;;1.55;1.00;;;18.40;49.10;;;;;;5053916;28;20033;-72
2022/04/07 11:15:18;;;;;;;2.08;0.98;;;18.30;49.40;;;;;;5052939;28;20099;-73
2022/04/07 11:17:44;;;;;;;2.03;0.80;;;18.10;49.60;;;;;;5053693;28;20061;-73
2022/04/07 11:20:23;;;;;;;2.10;0.90;;;18.00;49.30;;;;;;5052963;28;20041;-73
2022/04/07 11:22:57;;;;;;;3.35;0.85;;;17.90;49.20;;;;;;5053569;28;20468;-73
2022/04/07 11:25:33;;;;;;;2.13;0.70;;;17.90;50.40;;;;;;5053651;28;20029;-72
2022/04/07 11:28:22;;;;;;;2.33;0.93;;;17.80;50.40;;;;;;5052820;28;20025;-73
2022/04/07 11:30:52;;;;;;;3.13;0.98;;;17.80;51.10;;;;;;5053348;28;20029;-74
2022/04/07 11:36:04;;;;;;;1.02;0.77;;;18.00;50.10;;;;;;5053177;28;20159;-73
2022/04/07 11:38:32;;;;;;;2.90;0.85;;;18.00;50.70;;;;;;5053281;28;20044;-73
2022/04/07 11:41:02;;;;;;;2.35;0.90;;;18.10;51.00;;;;;;5052586;28;20021;-72
2022/04/07 11:43:28;;;;;;;2.75;0.80;;;18.10;50.90;;;;;;5052939;28;20033;-74
2022/04/07 11:45:55;;;;;;;4.35;1.17;;;18.10;49.80;;;;;;5053431;28;20444;-73
2022/04/07 11:48:22;;;;;;;3.08;0.85;;;18.20;50.00;;;;;;5052815;28;20112;-74
2022/04/07 11:50:49;;;;;;;1.40;0.93;;;18.20;49.00;;;;;;5052909;28;20055;-73
2022/04/07 11:53:16;;;;;;;1.77;1.00;;;18.20;48.50;;;;;;5051973;28;20091;-73
2022/04/07 11:55:42;;;;;;;3.00;0.90;;;18.20;48.30;;;;;;5052803;28;20060;-73
2022/04/07 11:58:10;;;;;;;4.15;0.90;;;18.20;48.10;;;;;;5051927;28;20021;-73
2022/04/07 12:00:36;;;;;;;2.55;1.13;;;18.20;49.10;;;;;;5052752;28;20471;-73
2022/04/07 12:03:03;;;;;;;2.60;0.95;;;18.30;49.20;;;;;;5052255;28;20112;-73
2022/04/07 12:05:30;;;;;;;6.55;1.30;;;18.40;49.50;;;;;;5053039;28;20029;-74
2022/04/07 12:08:16;;;;;;;1.50;0.88;;;18.30;46.80;;;;;;5052699;28;20447;-73
2022/04/07 12:10:44;;;;;;;2.55;0.80;;;18.30;46.00;;;;;;5051834;28;20063;-73
2022/04/07 12:13:11;;;;;;;1.15;0.70;;;18.20;45.40;;;;;;5052071;28;20029;-73
2022/04/07 12:15:38;;;;;;;4.85;0.68;;;18.20;45.80;;;;;;5052802;28;20035;-73
2022/04/07 12:18:09;;;;;;;2.28;0.82;;;18.20;45.90;;;;;;5050831;28;20448;-73
2022/04/07 12:20:37;;;;;;;0.50;0.47;;;18.30;46.40;;;;;;5052508;28;20052;-73
2022/04/07 12:23:05;;;;;;;1.83;0.63;;;18.20;45.40;;;;;;5051897;28;20032;-73
2022/04/07 12:25:31;;;;;;;2.90;1.02;;;18.30;45.90;;;;;;5052448;28;20078;-73
2022/04/07 12:28:08;;;;;;;1.40;0.70;;;18.30;47.20;;;;;;5052399;28;20381;-73
2022/04/07 12:30:46;;;;;;;2.53;0.80;;;18.30;45.70;;;;;;5052528;28;20025;-73
2022/04/07 12:33:31;;;;;;;2.95;0.80;;;18.30;45.90;;;;;;5051763;28;20033;-74
2022/04/07 12:35:57;;;;;;;1.10;0.70;;;18.30;45.80;;;;;;5052121;28;20029;-73
2022/04/07 12:38:23;;;;;;;2.92;0.63;;;18.30;47.20;;;;;;5051640;28;20430;-74
2022/04/07 12:40:49;;;;;;;1.70;0.70;;;18.30;45.70;;;;;;5052223;28;20021;-74
2022/04/07 12:43:15;;;;;;;2.08;0.60;;;18.30;47.70;;;;;;5051700;28;20063;-74
2022/04/07 12:45:59;;;;;;;0.90;0.60;;;18.30;46.90;;;;;;5052263;28;20355;-72
2022/04/07 12:48:24;;;;;;;0.75;0.50;;;18.30;46.00;;;;;;5052035;28;20090;-73
2022/04/07 12:50:50;;;;;;;1.88;0.75;;;18.30;46.50;;;;;;5052027;28;20421;-73
2022/04/07 12:53:38;;;;;;;2.15;0.60;;;18.30;47.00;;;;;;5051228;28;20032;-72
2022/04/07 12:56:21;;;;;;;4.15;0.70;;;18.30;46.40;;;;;;5050846;28;20079;-73
2022/04/07 12:59:19;;;;;;;1.58;0.63;;;18.30;46.70;;;;;;5051704;28;20422;-73